createdAt,value
2018-12-13T00:00:10.385Z,4.23
2018-12-13T00:01:10.299Z,4.16
2018-12-13T00:02:10.224Z,4.06
2018-12-13T00:03:10.124Z,4.16
2018-12-13T00:04:10.035Z,4.26
2018-12-13T00:05:09.952Z,4.23
2018-12-13T00:06:09.861Z,4.32
2018-12-13T00:07:09.787Z,4.27
2018-12-13T00:08:09.700Z,4.33
2018-12-13T00:09:09.611Z,4.27
2018-12-13T00:10:09.525Z,4.23
2018-12-13T00:11:09.448Z,4.27
2018-12-13T00:12:09.350Z,4.24
2018-12-13T00:13:09.262Z,4.23
2018-12-13T00:14:09.188Z,4.30
2018-12-13T00:15:09.099Z,4.24
2018-12-13T00:16:09.011Z,4.23
2018-12-13T00:17:08.924Z,4.18
2018-12-13T00:18:08.842Z,4.18
2018-12-13T00:19:08.753Z,4.26
2018-12-13T00:20:08.663Z,4.32
2018-12-13T00:21:08.587Z,4.29
2018-12-13T00:22:08.503Z,4.24
2018-12-13T00:23:08.414Z,4.26
2018-12-13T00:24:08.327Z,4.33
2018-12-13T00:25:08.237Z,4.29
2018-12-13T00:26:08.150Z,4.30
2018-12-13T00:27:08.064Z,4.26
2018-12-13T00:28:07.987Z,4.20
2018-12-13T00:29:07.901Z,4.16
2018-12-13T00:30:07.826Z,4.15
2018-12-13T00:31:07.732Z,4.15
2018-12-13T00:32:07.638Z,4.05
2018-12-13T00:33:07.552Z,4.04
2018-12-13T00:34:07.465Z,4.02
2018-12-13T00:35:07.401Z,3.96
2018-12-13T00:36:07.302Z,4.15
2018-12-13T00:37:07.213Z,4.12
2018-12-13T00:38:07.127Z,4.24
2018-12-13T00:39:07.039Z,4.14
2018-12-13T00:40:06.954Z,4.18
2018-12-13T00:41:06.876Z,4.23
2018-12-13T00:42:06.789Z,4.15
2018-12-13T00:43:06.702Z,4.20
2018-12-13T00:44:06.614Z,4.26
2018-12-13T00:45:06.527Z,4.18
2018-12-13T00:46:06.440Z,4.20
2018-12-13T00:47:06.353Z,4.12
2018-12-13T00:48:06.280Z,4.16
2018-12-13T00:49:06.190Z,4.12
2018-12-13T00:50:06.103Z,4.08
2018-12-13T00:51:06.027Z,3.94
2018-12-13T00:52:05.929Z,3.91
2018-12-13T00:53:05.841Z,4.12
2018-12-13T00:54:05.753Z,4.02
2018-12-13T00:55:05.679Z,4.04
2018-12-13T00:56:05.591Z,3.96
2018-12-13T00:57:05.504Z,3.98
2018-12-13T00:58:05.432Z,4.02
2018-12-13T00:59:05.329Z,4.15
2018-12-13T01:00:05.241Z,4.11
2018-12-13T01:01:05.154Z,4.04
2018-12-13T01:02:05.073Z,4.11
2018-12-13T01:03:04.991Z,4.02
2018-12-13T01:04:04.910Z,4.00
2018-12-13T01:05:04.821Z,4.12
2018-12-13T01:06:04.732Z,3.91
2018-12-13T01:07:04.642Z,4.14
2018-12-13T01:08:04.556Z,4.11
2018-12-13T01:09:04.469Z,3.96
2018-12-13T01:10:04.393Z,4.02
2018-12-13T01:11:04.306Z,4.02
2018-12-13T01:12:04.218Z,4.08
2018-12-13T01:13:04.131Z,4.08
2018-12-13T01:14:04.043Z,4.12
2018-12-13T01:15:03.957Z,3.98
2018-12-13T01:16:03.883Z,4.06
2018-12-13T01:17:03.793Z,4.00
2018-12-13T01:18:03.708Z,4.00
2018-12-13T01:19:03.620Z,4.02
2018-12-13T01:20:03.532Z,4.04
2018-12-13T01:21:03.444Z,3.91
2018-12-13T01:22:03.360Z,3.90
2018-12-13T01:23:03.270Z,3.98
2018-12-13T01:24:03.195Z,4.02
2018-12-13T01:25:03.107Z,3.87
2018-12-13T01:26:03.020Z,3.97
2018-12-13T01:27:02.933Z,3.98
2018-12-13T01:28:02.846Z,4.05
2018-12-13T01:29:02.761Z,4.00
2018-12-13T01:30:02.675Z,4.02
2018-12-13T01:31:02.595Z,3.90
2018-12-13T01:32:02.509Z,3.98
2018-12-13T01:33:02.421Z,4.05
2018-12-13T01:34:02.335Z,4.02
2018-12-13T01:35:02.252Z,3.97
2018-12-13T01:36:02.171Z,3.98
2018-12-13T01:37:02.072Z,4.02
2018-12-13T01:38:01.984Z,3.97
2018-12-13T01:39:01.909Z,4.00
2018-12-13T01:40:01.826Z,3.90
2018-12-13T01:41:01.739Z,3.98
2018-12-13T01:42:01.647Z,4.04
2018-12-13T01:43:01.561Z,4.00
2018-12-13T01:44:01.472Z,4.04
2018-12-13T01:45:01.387Z,4.02
2018-12-13T01:46:01.310Z,4.04
2018-12-13T01:47:01.222Z,3.97
2018-12-13T01:48:01.139Z,3.93
2018-12-13T01:49:01.063Z,3.98
2018-12-13T01:50:00.961Z,3.90
2018-12-13T01:51:00.873Z,3.87
2018-12-13T01:52:00.789Z,3.90
2018-12-13T01:53:00.700Z,3.88
2018-12-13T01:54:00.623Z,3.93
2018-12-13T01:55:00.537Z,3.84
2018-12-13T01:56:00.448Z,3.87
2018-12-13T01:57:00.364Z,3.86
2018-12-13T01:58:01.196Z,3.93
2018-12-13T01:59:00.190Z,3.97
2018-12-13T02:00:00.099Z,4.00
2018-12-13T02:01:00.024Z,4.00
2018-12-13T02:01:59.939Z,3.97
2018-12-13T02:02:59.849Z,3.96
2018-12-13T02:03:59.763Z,3.94
2018-12-13T02:04:59.691Z,3.98
2018-12-13T02:05:59.589Z,3.98
2018-12-13T02:06:59.500Z,4.06
2018-12-13T02:07:59.414Z,4.02
2018-12-13T02:08:59.339Z,4.04
2018-12-13T02:09:59.250Z,4.00
2018-12-13T02:10:59.164Z,3.96
2018-12-13T02:11:59.079Z,4.15
2018-12-13T02:12:58.988Z,4.05
2018-12-13T02:13:58.900Z,4.08
2018-12-13T02:14:58.813Z,4.15
2018-12-13T02:15:58.739Z,4.06
2018-12-13T02:16:58.652Z,4.02
2018-12-13T02:17:58.564Z,4.06
2018-12-13T02:18:58.489Z,3.90
2018-12-13T02:19:58.389Z,4.04
2018-12-13T02:20:58.301Z,4.00
2018-12-13T02:21:58.214Z,4.00
2018-12-13T02:22:58.130Z,3.94
2018-12-13T02:23:58.051Z,3.94
2018-12-13T02:24:57.964Z,4.05
2018-12-13T02:25:57.878Z,3.93
2018-12-13T02:26:57.789Z,4.02
2018-12-13T02:27:57.704Z,4.02
2018-12-13T02:28:57.616Z,4.00
2018-12-13T02:29:57.541Z,4.09
2018-12-13T02:30:57.453Z,4.04
2018-12-13T02:31:57.370Z,4.09
2018-12-13T02:32:57.277Z,4.11
2018-12-13T02:33:57.192Z,4.06
2018-12-13T02:34:57.102Z,4.16
2018-12-13T02:35:57.016Z,4.09
2018-12-13T02:36:56.928Z,3.94
2018-12-13T02:37:56.853Z,4.05
2018-12-13T02:38:56.766Z,4.04
2018-12-13T02:39:56.680Z,4.18
2018-12-13T02:40:56.602Z,4.12
2018-12-13T02:41:56.505Z,4.20
2018-12-13T02:42:56.431Z,4.29
2018-12-13T02:43:56.330Z,4.20
2018-12-13T02:44:56.266Z,4.30
2018-12-13T02:45:56.168Z,4.14
2018-12-13T02:46:56.080Z,4.20
2018-12-13T02:47:55.992Z,4.37
2018-12-13T02:48:55.905Z,4.16
2018-12-13T02:49:55.817Z,4.26
2018-12-13T02:50:55.732Z,4.20
2018-12-13T02:51:55.656Z,4.15
2018-12-13T02:52:55.569Z,4.15
2018-12-13T02:53:55.479Z,4.11
2018-12-13T02:54:55.393Z,4.14
2018-12-13T02:55:55.305Z,4.15
2018-12-13T02:56:55.218Z,4.22
2018-12-13T02:57:55.143Z,4.16
2018-12-13T02:58:55.054Z,4.05
2018-12-13T02:59:54.970Z,3.98
2018-12-13T03:00:54.880Z,3.91
2018-12-13T03:01:54.795Z,3.94
2018-12-13T03:02:54.722Z,3.86
2018-12-13T03:03:54.619Z,3.91
2018-12-13T03:04:54.546Z,3.91
2018-12-13T03:05:54.464Z,3.88
2018-12-13T03:06:54.370Z,3.91
2018-12-13T03:07:54.282Z,3.97
2018-12-13T03:08:54.194Z,4.00
2018-12-13T03:09:54.108Z,3.97
2018-12-13T03:10:54.019Z,3.96
2018-12-13T03:11:53.945Z,3.93
2018-12-13T03:12:53.858Z,3.91
2018-12-13T03:13:53.769Z,3.97
2018-12-13T03:14:53.682Z,4.04
2018-12-13T03:15:53.595Z,3.93
2018-12-13T03:16:53.520Z,3.93
2018-12-13T03:17:53.421Z,3.91
2018-12-13T03:18:53.336Z,3.91
2018-12-13T03:19:53.258Z,3.94
2018-12-13T03:20:53.171Z,3.98
2018-12-13T03:21:53.083Z,3.90
2018-12-13T03:22:52.997Z,3.96
2018-12-13T03:23:52.925Z,3.84
2018-12-13T03:24:52.822Z,3.90
2018-12-13T03:25:52.734Z,3.84
2018-12-13T03:26:52.661Z,3.96
2018-12-13T03:27:52.572Z,3.88
2018-12-13T03:28:52.485Z,3.84
2018-12-13T03:29:52.398Z,3.84
2018-12-13T03:30:52.323Z,3.83
2018-12-13T03:31:52.223Z,3.79
2018-12-13T03:32:52.136Z,3.87
2018-12-13T03:33:52.064Z,3.90
2018-12-13T03:34:51.974Z,3.96
2018-12-13T03:35:51.886Z,3.91
2018-12-13T03:36:51.798Z,3.96
2018-12-13T03:37:51.711Z,4.00
2018-12-13T03:38:51.623Z,3.86
2018-12-13T03:39:51.535Z,4.06
2018-12-13T03:40:51.448Z,4.02
2018-12-13T03:41:51.374Z,3.88
2018-12-13T03:42:51.285Z,3.94
2018-12-13T03:43:51.202Z,3.90
2018-12-13T03:44:51.113Z,3.88
2018-12-13T03:45:51.025Z,3.94
2018-12-13T03:46:50.935Z,4.02
2018-12-13T03:47:50.850Z,3.98
2018-12-13T03:48:50.787Z,4.00
2018-12-13T03:49:50.686Z,3.97
2018-12-13T03:50:50.600Z,3.88
2018-12-13T03:51:50.510Z,3.90
2018-12-13T03:52:50.433Z,3.88
2018-12-13T03:53:50.338Z,3.91
2018-12-13T03:54:50.253Z,4.02
2018-12-13T03:55:50.162Z,3.91
2018-12-13T03:56:50.087Z,3.97
2018-12-13T03:57:50.000Z,3.88
2018-12-13T03:58:49.912Z,4.02
2018-12-13T03:59:49.825Z,3.93
2018-12-13T04:00:49.746Z,3.91
2018-12-13T04:01:49.650Z,3.88
2018-12-13T04:02:49.565Z,3.88
2018-12-13T04:03:49.487Z,3.86
2018-12-13T04:04:49.401Z,3.91
2018-12-13T04:05:49.326Z,3.90
2018-12-13T04:06:49.225Z,3.84
2018-12-13T04:07:49.138Z,3.87
2018-12-13T04:08:49.052Z,3.79
2018-12-13T04:09:48.963Z,3.87
2018-12-13T04:10:48.878Z,3.90
2018-12-13T04:11:48.802Z,3.84
2018-12-13T04:12:48.715Z,3.86
2018-12-13T04:13:48.629Z,3.76
2018-12-13T04:14:48.538Z,3.76
2018-12-13T04:15:48.453Z,3.78
2018-12-13T04:16:48.363Z,3.83
2018-12-13T04:17:48.289Z,3.79
2018-12-13T04:18:48.192Z,3.78
2018-12-13T04:19:48.128Z,3.80
2018-12-13T04:20:48.027Z,3.88
2018-12-13T04:21:47.942Z,3.91
2018-12-13T04:22:47.852Z,3.83
2018-12-13T04:23:47.765Z,3.84
2018-12-13T04:24:47.691Z,3.80
2018-12-13T04:25:47.591Z,3.65
2018-12-13T04:26:47.532Z,3.73
2018-12-13T04:27:47.430Z,3.70
2018-12-13T04:28:47.339Z,3.76
2018-12-13T04:29:47.254Z,3.70
2018-12-13T04:30:47.178Z,3.66
2018-12-13T04:31:47.083Z,3.65
2018-12-13T04:32:46.990Z,3.62
2018-12-13T04:33:46.903Z,3.62
2018-12-13T04:34:46.832Z,3.62
2018-12-13T04:35:46.743Z,3.72
2018-12-13T04:36:46.654Z,3.65
2018-12-13T04:37:46.565Z,3.62
2018-12-13T04:38:46.479Z,3.72
2018-12-13T04:39:46.392Z,3.68
2018-12-13T04:40:46.304Z,3.70
2018-12-13T04:41:46.217Z,3.78
2018-12-13T04:42:46.141Z,3.78
2018-12-13T04:43:46.055Z,3.76
2018-12-13T04:44:45.966Z,3.84
2018-12-13T04:45:45.879Z,3.69
2018-12-13T04:46:45.791Z,3.76
2018-12-13T04:47:45.709Z,3.80
2018-12-13T04:48:45.618Z,3.73
2018-12-13T04:49:45.531Z,3.75
2018-12-13T04:50:45.455Z,3.72
2018-12-13T04:51:45.367Z,3.70
2018-12-13T04:52:45.281Z,3.76
2018-12-13T04:53:45.193Z,3.72
2018-12-13T04:54:45.106Z,3.57
2018-12-13T04:55:45.017Z,3.66
2018-12-13T04:56:44.931Z,3.58
2018-12-13T04:57:44.845Z,3.65
2018-12-13T04:58:44.796Z,3.62
2018-12-13T04:59:44.682Z,3.60
2018-12-13T05:00:44.593Z,3.70
2018-12-13T05:01:44.505Z,3.60
2018-12-13T05:02:44.419Z,3.70
2018-12-13T05:03:44.333Z,3.69
2018-12-13T05:04:44.244Z,3.61
2018-12-13T05:05:44.157Z,3.62
2018-12-13T05:06:44.081Z,3.66
2018-12-13T05:07:43.995Z,3.68
2018-12-13T05:08:43.906Z,3.70
2018-12-13T05:09:43.820Z,3.70
2018-12-13T05:10:43.736Z,3.70
2018-12-13T05:11:43.644Z,3.76
2018-12-13T05:12:43.559Z,3.80
2018-12-13T05:13:43.469Z,3.76
2018-12-13T05:14:43.383Z,3.72
2018-12-13T05:15:43.308Z,3.83
2018-12-13T05:16:43.220Z,3.72
2018-12-13T05:17:43.136Z,3.66
2018-12-13T05:18:43.045Z,3.60
2018-12-13T05:19:42.958Z,3.65
2018-12-13T05:20:42.871Z,3.75
2018-12-13T05:21:42.787Z,3.70
2018-12-13T05:22:42.709Z,3.62
2018-12-13T05:23:42.621Z,3.70
2018-12-13T05:24:42.535Z,3.66
2018-12-13T05:25:42.446Z,3.55
2018-12-13T05:26:42.362Z,3.61
2018-12-13T05:27:42.271Z,3.57
2018-12-13T05:28:42.184Z,3.70
2018-12-13T05:29:42.097Z,3.68
2018-12-13T05:30:42.009Z,3.66
2018-12-13T05:31:41.934Z,3.60
2018-12-13T05:32:41.851Z,3.68
2018-12-13T05:33:41.760Z,3.65
2018-12-13T05:34:41.674Z,3.70
2018-12-13T05:35:41.586Z,3.80
2018-12-13T05:36:41.497Z,3.78
2018-12-13T05:37:41.410Z,3.72
2018-12-13T05:38:41.335Z,3.60
2018-12-13T05:39:41.236Z,3.60
2018-12-13T05:40:41.149Z,3.62
2018-12-13T05:41:41.073Z,3.68
2018-12-13T05:42:40.986Z,3.54
2018-12-13T05:43:40.907Z,3.50
2018-12-13T05:44:40.812Z,3.55
2018-12-13T05:45:40.723Z,3.52
2018-12-13T05:46:40.636Z,3.45
2018-12-13T05:47:40.550Z,3.51
2018-12-13T05:48:40.462Z,3.50
2018-12-13T05:49:40.375Z,3.54
2018-12-13T05:50:40.299Z,3.51
2018-12-13T05:51:40.217Z,3.51
2018-12-13T05:52:40.125Z,3.54
2018-12-13T05:53:40.037Z,3.47
2018-12-13T05:54:39.949Z,3.50
2018-12-13T05:55:39.863Z,3.50
2018-12-13T05:56:39.789Z,3.45
2018-12-13T05:57:39.688Z,3.48
2018-12-13T05:58:39.603Z,3.50
2018-12-13T05:59:39.526Z,3.52
2018-12-13T06:00:39.438Z,3.43
2018-12-13T06:01:39.350Z,3.36
2018-12-13T06:02:39.266Z,3.43
2018-12-13T06:03:39.175Z,3.52
2018-12-13T06:04:39.088Z,3.48
2018-12-13T06:05:39.000Z,3.43
2018-12-13T06:06:38.915Z,3.47
2018-12-13T06:07:38.826Z,3.51
2018-12-13T06:08:38.750Z,3.48
2018-12-13T06:09:38.664Z,3.50
2018-12-13T06:10:38.576Z,3.45
2018-12-13T06:11:38.489Z,3.43
2018-12-13T06:12:38.414Z,3.48
2018-12-13T06:13:38.314Z,3.42
2018-12-13T06:14:38.227Z,3.52
2018-12-13T06:15:38.143Z,3.52
2018-12-13T06:16:38.051Z,3.45
2018-12-13T06:17:37.982Z,3.51
2018-12-13T06:18:37.890Z,3.52
2018-12-13T06:19:37.815Z,3.57
2018-12-13T06:20:37.716Z,3.54
2018-12-13T06:21:37.628Z,3.52
2018-12-13T06:22:37.548Z,3.54
2018-12-13T06:23:37.453Z,3.48
2018-12-13T06:24:37.366Z,3.50
2018-12-13T06:25:37.279Z,3.58
2018-12-13T06:26:37.191Z,3.62
2018-12-13T06:27:37.119Z,3.54
2018-12-13T06:28:37.028Z,3.66
2018-12-13T06:29:41.853Z,3.70
2018-12-13T06:30:36.853Z,3.57
2018-12-13T06:31:36.767Z,3.65
2018-12-13T06:32:36.679Z,3.54
2018-12-13T06:33:36.593Z,3.61
2018-12-13T06:34:36.504Z,3.55
2018-12-13T06:35:36.417Z,3.57
2018-12-13T06:36:36.331Z,3.58
2018-12-13T06:37:36.254Z,3.61
2018-12-13T06:38:36.168Z,3.52
2018-12-13T06:39:36.080Z,3.55
2018-12-13T06:40:35.993Z,3.62
2018-12-13T06:41:35.917Z,3.66
2018-12-13T06:42:35.820Z,3.66
2018-12-13T06:43:35.731Z,3.62
2018-12-13T06:44:35.644Z,3.69
2018-12-13T06:45:35.559Z,3.61
2018-12-13T06:46:35.513Z,3.62
2018-12-13T06:47:35.394Z,3.60
2018-12-13T06:48:35.307Z,3.61
2018-12-13T06:49:35.220Z,3.68
2018-12-13T06:50:35.131Z,3.57
2018-12-13T06:51:35.045Z,3.62
2018-12-13T06:52:34.970Z,3.62
2018-12-13T06:53:34.870Z,3.61
2018-12-13T06:54:34.785Z,3.58
2018-12-13T06:55:34.706Z,3.62
2018-12-13T06:56:34.620Z,3.68
2018-12-13T06:57:34.532Z,3.62
2018-12-13T06:58:34.445Z,3.72
2018-12-13T06:59:34.371Z,3.66
2018-12-13T07:00:34.271Z,3.65
2018-12-13T07:01:34.183Z,3.69
2018-12-13T07:02:34.095Z,3.62
2018-12-13T07:03:34.009Z,3.72
2018-12-13T07:04:33.933Z,3.66
2018-12-13T07:05:33.847Z,3.62
2018-12-13T07:06:33.758Z,3.54
2018-12-13T07:07:33.671Z,3.69
2018-12-13T07:08:33.596Z,3.68
2018-12-13T07:09:33.496Z,3.66
2018-12-13T07:10:33.408Z,3.58
2018-12-13T07:11:33.324Z,3.68
2018-12-13T07:12:33.237Z,3.60
2018-12-13T07:13:33.158Z,3.66
2018-12-13T07:14:33.072Z,3.69
2018-12-13T07:15:32.984Z,3.61
2018-12-13T07:16:32.897Z,3.54
2018-12-13T07:17:32.810Z,3.62
2018-12-13T07:18:32.722Z,3.70
2018-12-13T07:19:32.635Z,3.66
2018-12-13T07:20:32.548Z,3.66
2018-12-13T07:21:32.466Z,3.65
2018-12-13T07:22:32.385Z,3.66
2018-12-13T07:23:32.298Z,3.66
2018-12-13T07:24:32.211Z,3.70
2018-12-13T07:25:32.124Z,3.72
2018-12-13T07:26:32.048Z,3.69
2018-12-13T07:27:31.948Z,3.69
2018-12-13T07:28:31.861Z,3.61
2018-12-13T07:29:31.779Z,3.65
2018-12-13T07:30:31.702Z,3.65
2018-12-13T07:31:31.611Z,3.72
2018-12-13T07:32:31.523Z,3.73
2018-12-13T07:33:31.435Z,3.62
2018-12-13T07:34:31.350Z,3.68
2018-12-13T07:35:31.261Z,3.61
2018-12-13T07:36:31.174Z,3.65
2018-12-13T07:37:31.086Z,3.73
2018-12-13T07:38:31.011Z,3.79
2018-12-13T07:39:30.925Z,3.70
2018-12-13T07:40:30.838Z,3.75
2018-12-13T07:41:30.751Z,3.83
2018-12-13T07:42:30.661Z,3.86
2018-12-13T07:43:30.575Z,3.76
2018-12-13T07:44:30.487Z,3.69
2018-12-13T07:45:30.401Z,3.62
2018-12-13T07:46:30.314Z,3.58
2018-12-13T07:47:30.237Z,3.58
2018-12-13T07:48:30.151Z,3.69
2018-12-13T07:49:30.062Z,3.60
2018-12-13T07:50:29.976Z,3.60
2018-12-13T07:51:29.888Z,3.52
2018-12-13T07:52:29.802Z,3.58
2018-12-13T07:53:29.713Z,3.54
2018-12-13T07:54:29.638Z,3.57
2018-12-13T07:55:29.552Z,3.50
2018-12-13T07:56:29.464Z,3.52
2018-12-13T07:57:29.379Z,3.50
2018-12-13T07:58:29.289Z,3.52
2018-12-13T07:59:29.202Z,3.57
2018-12-13T08:00:29.114Z,3.45
2018-12-13T08:01:29.028Z,3.48
2018-12-13T08:02:28.941Z,3.57
2018-12-13T08:03:28.864Z,3.57
2018-12-13T08:04:28.781Z,3.33
2018-12-13T08:05:28.690Z,3.35
2018-12-13T08:06:28.602Z,3.39
2018-12-13T08:07:28.515Z,3.47
2018-12-13T08:08:28.428Z,3.50
2018-12-13T08:09:28.340Z,3.47
2018-12-13T08:10:28.253Z,3.43
2018-12-13T08:11:28.183Z,3.40
2018-12-13T08:12:28.090Z,3.31
2018-12-13T08:13:28.004Z,3.35
2018-12-13T08:14:27.915Z,3.29
2018-12-13T08:15:27.840Z,3.32
2018-12-13T08:16:27.741Z,3.40
2018-12-13T08:17:27.655Z,3.50
2018-12-13T08:18:27.565Z,3.43
2018-12-13T08:19:27.480Z,3.48
2018-12-13T08:20:27.414Z,3.47
2018-12-13T08:21:27.304Z,3.54
2018-12-13T08:22:27.229Z,3.43
2018-12-13T08:23:27.142Z,3.42
2018-12-13T08:24:27.056Z,3.24
2018-12-13T08:25:26.967Z,3.42
2018-12-13T08:26:26.882Z,3.45
2018-12-13T08:27:26.792Z,3.23
2018-12-13T08:28:26.706Z,3.40
2018-12-13T08:29:26.621Z,3.31
2018-12-13T08:30:26.534Z,3.47
2018-12-13T08:31:26.444Z,3.42
2018-12-13T08:32:26.369Z,3.47
2018-12-13T08:33:26.317Z,3.39
2018-12-13T08:34:26.193Z,3.42
2018-12-13T08:35:26.107Z,3.39
2018-12-13T08:36:26.019Z,3.40
2018-12-13T08:37:25.932Z,3.43
2018-12-13T08:38:27.358Z,3.40
2018-12-13T08:39:25.756Z,3.47
2018-12-13T08:40:25.668Z,3.55
2018-12-13T08:41:25.582Z,3.47
2018-12-13T08:42:25.507Z,3.51
2018-12-13T08:43:25.418Z,3.47
2018-12-13T08:44:25.331Z,3.45
2018-12-13T08:45:25.245Z,3.50
2018-12-13T08:46:25.159Z,3.47
2018-12-13T08:47:25.070Z,3.61
2018-12-13T08:48:24.983Z,3.58
2018-12-13T08:49:24.894Z,3.48
2018-12-13T08:50:24.808Z,3.66
2018-12-13T08:51:24.722Z,3.55
2018-12-13T08:52:24.645Z,3.58
2018-12-13T08:53:24.559Z,3.60
2018-12-13T08:54:24.470Z,3.52
2018-12-13T08:55:24.383Z,3.65
2018-12-13T08:56:24.296Z,3.66
2018-12-13T08:57:24.209Z,3.75
2018-12-13T08:58:24.122Z,3.73
2018-12-13T08:59:24.036Z,3.78
2018-12-13T09:00:23.946Z,3.62
2018-12-13T09:01:23.871Z,3.69
2018-12-13T09:02:23.784Z,3.70
2018-12-13T09:03:23.699Z,3.79
2018-12-13T09:04:23.612Z,3.79
2018-12-13T09:05:23.535Z,3.83
2018-12-13T09:06:23.436Z,3.87
2018-12-13T09:07:23.347Z,3.91
2018-12-13T09:08:23.265Z,3.83
2018-12-13T09:09:23.174Z,3.88
2018-12-13T09:10:23.097Z,3.86
2018-12-13T09:11:23.011Z,3.87
2018-12-13T09:12:22.936Z,3.88
2018-12-13T09:13:22.836Z,3.90
2018-12-13T09:14:22.748Z,3.96
2018-12-13T09:15:22.665Z,3.88
2018-12-13T09:16:22.574Z,3.97
2018-12-13T09:17:22.498Z,3.88
2018-12-13T09:18:22.415Z,3.91
2018-12-13T09:19:22.336Z,3.97
2018-12-13T09:20:22.238Z,3.93
2018-12-13T09:21:22.149Z,3.91
2018-12-13T09:22:22.066Z,4.00
2018-12-13T09:23:21.988Z,4.11
2018-12-13T09:24:21.889Z,4.02
2018-12-13T09:25:21.814Z,4.00
2018-12-13T09:26:21.737Z,3.98
2018-12-13T09:27:21.637Z,4.09
2018-12-13T09:28:21.550Z,4.11
2018-12-13T09:29:21.472Z,4.09
2018-12-13T09:30:21.387Z,4.18
2018-12-13T09:31:21.300Z,4.11
2018-12-13T09:32:21.214Z,4.04
2018-12-13T09:33:21.127Z,4.11
2018-12-13T09:34:21.038Z,4.14
2018-12-13T09:35:20.950Z,4.02
2018-12-13T09:36:20.863Z,3.98
2018-12-13T09:37:20.777Z,4.12
2018-12-13T09:38:20.701Z,3.94
2018-12-13T09:39:20.616Z,3.98
2018-12-13T09:40:20.526Z,4.05
2018-12-13T09:41:20.439Z,4.04
2018-12-13T09:42:20.364Z,3.96
2018-12-13T09:43:20.264Z,4.00
2018-12-13T09:44:20.178Z,3.94
2018-12-13T09:45:20.101Z,4.06
2018-12-13T09:46:20.015Z,4.02
2018-12-13T09:47:19.928Z,4.08
2018-12-13T09:48:19.840Z,4.12
2018-12-13T09:49:19.764Z,4.12
2018-12-13T09:50:19.677Z,4.26
2018-12-13T09:51:19.591Z,4.24
2018-12-13T09:52:19.503Z,4.16
2018-12-13T09:53:19.415Z,4.23
2018-12-13T09:54:19.328Z,4.12
2018-12-13T09:55:19.250Z,4.16
2018-12-13T09:56:19.154Z,4.14
2018-12-13T09:57:19.077Z,4.15
2018-12-13T09:58:18.992Z,4.09
2018-12-13T09:59:18.916Z,4.11
2018-12-13T10:00:18.819Z,4.05
2018-12-13T10:01:18.729Z,4.02
2018-12-13T10:02:18.641Z,3.98
2018-12-13T10:03:18.566Z,3.96
2018-12-13T10:04:18.485Z,3.97
2018-12-13T10:05:19.309Z,3.96
2018-12-13T10:06:18.304Z,4.05
2018-12-13T10:07:18.217Z,4.06
2018-12-13T10:08:18.128Z,3.93
2018-12-13T10:09:18.054Z,3.97
2018-12-13T10:10:17.967Z,3.94
2018-12-13T10:11:17.880Z,3.97
2018-12-13T10:12:17.796Z,3.93
2018-12-13T10:13:17.707Z,3.87
2018-12-13T10:14:17.617Z,3.91
2018-12-13T10:15:17.542Z,3.80
2018-12-13T10:16:17.456Z,3.79
2018-12-13T10:17:17.368Z,3.76
2018-12-13T10:18:17.282Z,3.84
2018-12-13T10:19:17.193Z,3.79
2018-12-13T10:20:17.106Z,3.93
2018-12-13T10:21:17.018Z,3.97
2018-12-13T10:22:16.948Z,3.97
2018-12-13T10:23:16.857Z,3.94
2018-12-13T10:24:16.768Z,3.83
2018-12-13T10:25:16.680Z,3.80
2018-12-13T10:26:16.595Z,3.80
2018-12-13T10:27:16.506Z,3.87
2018-12-13T10:28:16.420Z,3.88
2018-12-13T10:29:16.338Z,3.93
2018-12-13T10:30:16.269Z,3.91
2018-12-13T10:31:16.170Z,3.96
2018-12-13T10:32:16.086Z,3.90
2018-12-13T10:33:15.995Z,3.88
2018-12-13T10:34:15.906Z,3.86
2018-12-13T10:35:15.821Z,3.93
2018-12-13T10:36:15.732Z,3.93
2018-12-13T10:37:15.657Z,3.96
2018-12-13T10:38:15.569Z,3.93
2018-12-13T10:39:15.482Z,3.93
2018-12-13T10:40:15.398Z,3.90
2018-12-13T10:41:15.307Z,3.91
2018-12-13T10:42:15.223Z,3.91
2018-12-13T10:43:15.134Z,3.88
2018-12-13T10:44:15.057Z,3.88
2018-12-13T10:45:14.971Z,3.90
2018-12-13T10:46:14.882Z,3.78
2018-12-13T10:47:14.796Z,3.73
2018-12-13T10:48:14.710Z,3.79
2018-12-13T10:49:14.621Z,3.79
2018-12-13T10:50:14.533Z,3.80
2018-12-13T10:51:14.458Z,3.90
2018-12-13T10:52:14.371Z,3.96
2018-12-13T10:53:14.286Z,3.97
2018-12-13T10:54:14.198Z,3.93
2018-12-13T10:55:14.111Z,3.94
2018-12-13T10:56:14.022Z,3.98
2018-12-13T10:57:13.933Z,3.90
2018-12-13T10:58:13.859Z,3.96
2018-12-13T10:59:13.773Z,3.91
2018-12-13T11:00:14.354Z,3.88
2018-12-13T11:01:13.597Z,3.86
2018-12-13T11:02:13.511Z,3.87
2018-12-13T11:03:13.423Z,3.87
2018-12-13T11:04:13.333Z,3.88
2018-12-13T11:05:13.260Z,3.91
2018-12-13T11:06:13.174Z,3.98
2018-12-13T11:07:13.084Z,4.02
2018-12-13T11:08:12.997Z,4.02
2018-12-13T11:09:12.922Z,4.14
2018-12-13T11:10:12.823Z,4.12
2018-12-13T11:11:12.734Z,4.12
2018-12-13T11:12:12.660Z,4.18
2018-12-13T11:13:12.573Z,4.11
2018-12-13T11:14:12.485Z,4.12
2018-12-13T11:15:12.398Z,4.15
2018-12-13T11:16:12.325Z,4.12
2018-12-13T11:17:12.223Z,4.12
2018-12-13T11:18:12.138Z,4.18
2018-12-13T11:19:12.061Z,4.24
2018-12-13T11:20:11.974Z,4.27
2018-12-13T11:21:17.304Z,4.26
2018-12-13T11:22:11.799Z,4.02
2018-12-13T11:23:11.724Z,4.09
2018-12-13T11:24:11.623Z,4.05
2018-12-13T11:25:11.537Z,3.98
2018-12-13T11:26:11.462Z,3.90
2018-12-13T11:27:11.374Z,3.98
2018-12-13T11:28:11.286Z,4.04
2018-12-13T11:29:11.199Z,4.00
2018-12-13T11:30:11.111Z,4.09
2018-12-13T11:31:11.025Z,3.96
2018-12-13T11:32:10.953Z,3.96
2018-12-13T11:33:10.869Z,4.08
2018-12-13T11:34:10.775Z,4.04
2018-12-13T11:35:10.687Z,4.06
2018-12-13T11:36:10.614Z,4.15
2018-12-13T11:37:10.512Z,4.02
2018-12-13T11:38:10.438Z,4.11
2018-12-13T11:39:10.357Z,4.00
2018-12-13T11:40:10.263Z,4.06
2018-12-13T11:41:10.175Z,4.05
2018-12-13T11:42:10.088Z,3.96
2018-12-13T11:43:10.004Z,3.96
2018-12-13T11:44:09.913Z,4.02
2018-12-13T11:45:09.839Z,3.97
2018-12-13T11:46:09.752Z,4.04
2018-12-13T11:47:09.664Z,3.97
2018-12-13T11:48:09.577Z,3.94
2018-12-13T11:49:12.155Z,3.87
2018-12-13T11:50:09.401Z,3.93
2018-12-13T11:51:09.315Z,4.00
2018-12-13T11:52:09.240Z,3.94
2018-12-13T11:53:09.158Z,3.97
2018-12-13T11:54:09.064Z,4.08
2018-12-13T11:55:08.978Z,3.97
2018-12-13T11:56:08.890Z,3.97
2018-12-13T11:57:08.804Z,4.08
2018-12-13T11:58:08.716Z,3.91
2018-12-13T11:59:08.639Z,3.90
2018-12-13T12:00:08.553Z,3.91
2018-12-13T12:01:08.503Z,3.88
2018-12-13T12:02:08.378Z,3.86
2018-12-13T12:03:08.290Z,3.83
2018-12-13T12:04:08.237Z,3.86
2018-12-13T12:05:08.129Z,3.91
2018-12-13T12:06:08.041Z,3.79
2018-12-13T12:07:07.953Z,3.79
2018-12-13T12:08:07.866Z,3.97
2018-12-13T12:09:12.247Z,3.91
2018-12-13T12:10:07.699Z,4.02
2018-12-13T12:11:07.605Z,4.00
2018-12-13T12:12:07.530Z,3.98
2018-12-13T12:13:07.429Z,3.97
2018-12-13T12:14:07.355Z,3.88
2018-12-13T12:15:07.267Z,4.02
2018-12-13T12:16:07.180Z,4.00
2018-12-13T12:17:07.092Z,3.90
2018-12-13T12:18:07.006Z,4.02
2018-12-13T12:19:06.930Z,3.97
2018-12-13T12:20:06.830Z,4.00
2018-12-13T12:21:06.743Z,3.93
2018-12-13T12:22:06.668Z,4.04
2018-12-13T12:23:06.583Z,4.02
2018-12-13T12:24:06.493Z,4.00
2018-12-13T12:25:06.409Z,4.00
2018-12-13T12:26:06.318Z,3.97
2018-12-13T12:27:06.233Z,3.91
2018-12-13T12:28:06.143Z,3.97
2018-12-13T12:29:06.057Z,3.96
2018-12-13T12:30:05.984Z,3.96
2018-12-13T12:31:05.894Z,3.86
2018-12-13T12:32:05.813Z,3.84
2018-12-13T12:33:05.721Z,3.80
2018-12-13T12:34:05.632Z,3.75
2018-12-13T12:35:05.546Z,3.76
2018-12-13T12:36:05.458Z,3.86
2018-12-13T12:37:05.371Z,3.79
2018-12-13T12:38:05.296Z,3.88
2018-12-13T12:39:05.209Z,3.87
2018-12-13T12:40:05.122Z,3.79
2018-12-13T12:41:05.033Z,3.76
2018-12-13T12:42:04.945Z,3.70
2018-12-13T12:43:04.861Z,3.75
2018-12-13T12:44:04.774Z,3.70
2018-12-13T12:45:04.695Z,3.70
2018-12-13T12:46:04.609Z,3.58
2018-12-13T12:47:04.521Z,3.62
2018-12-13T12:48:04.435Z,3.61
2018-12-13T12:49:04.346Z,3.65
2018-12-13T12:50:04.259Z,3.54
2018-12-13T12:51:04.202Z,3.58
2018-12-13T12:52:04.084Z,3.57
2018-12-13T12:53:04.010Z,3.52
2018-12-13T12:54:03.933Z,3.55
2018-12-13T12:55:03.835Z,3.54
2018-12-13T12:56:03.747Z,3.43
2018-12-13T12:57:03.660Z,3.52
2018-12-13T12:58:03.572Z,3.47
2018-12-13T12:59:03.484Z,3.48
2018-12-13T13:00:03.401Z,3.51
2018-12-13T13:01:03.310Z,3.43
2018-12-13T13:02:03.235Z,3.55
2018-12-13T13:03:03.147Z,3.54
2018-12-13T13:04:03.064Z,3.54
2018-12-13T13:05:02.973Z,3.52
2018-12-13T13:06:02.891Z,3.57
2018-12-13T13:07:02.799Z,3.45
2018-12-13T13:08:02.712Z,3.42
2018-12-13T13:09:02.624Z,3.55
2018-12-13T13:10:02.537Z,3.39
2018-12-13T13:11:02.463Z,3.54
2018-12-13T13:12:02.375Z,3.47
2018-12-13T13:13:02.291Z,3.48
2018-12-13T13:14:02.199Z,3.35
2018-12-13T13:15:02.113Z,3.48
2018-12-13T13:16:02.033Z,3.48
2018-12-13T13:17:01.938Z,3.55